createdAt,value
2022-08-17T00:00:18.294Z,22.10
2022-08-17T00:03:04.219Z,22.20
2022-08-17T00:05:36.035Z,22.10
2022-08-17T00:08:04.607Z,22.10
2022-08-17T00:10:33.090Z,22.10
2022-08-17T00:13:07.043Z,22.20
2022-08-17T00:15:36.027Z,22.10
2022-08-17T00:18:04.821Z,22.10
2022-08-17T00:20:56.249Z,22.10
2022-08-17T00:23:24.675Z,22.10
2022-08-17T00:25:53.580Z,22.10
2022-08-17T00:28:23.038Z,22.00
2022-08-17T00:30:53.139Z,22.00
2022-08-17T00:33:25.648Z,22.00
2022-08-17T00:35:54.891Z,22.00
2022-08-17T00:38:23.609Z,22.10
2022-08-17T00:40:55.920Z,22.00
2022-08-17T00:43:32.694Z,22.00
2022-08-17T00:46:01.652Z,21.90
2022-08-17T00:48:30.897Z,21.90
2022-08-17T00:51:08.170Z,21.90
2022-08-17T00:53:39.677Z,21.80
2022-08-17T00:56:11.780Z,21.80
2022-08-17T00:58:42.009Z,21.80
2022-08-17T01:01:11.800Z,21.90
2022-08-17T01:03:43.929Z,21.80
2022-08-17T01:06:12.311Z,21.80
2022-08-17T01:08:41.627Z,21.80
2022-08-17T01:11:10.295Z,21.80
2022-08-17T01:13:42.026Z,21.80
2022-08-17T01:16:18.310Z,21.70
2022-08-17T01:18:49.108Z,21.70
2022-08-17T01:21:24.119Z,21.70
2022-08-17T01:23:53.621Z,21.60
2022-08-17T01:26:22.444Z,21.60
2022-08-17T01:28:54.168Z,21.50
2022-08-17T01:31:24.917Z,21.50
2022-08-17T01:33:53.598Z,21.50
2022-08-17T01:36:21.761Z,21.50
2022-08-17T01:38:49.805Z,21.50
2022-08-17T01:41:22.664Z,21.40
2022-08-17T01:43:54.856Z,21.40
2022-08-17T01:46:27.005Z,21.50
2022-08-17T01:48:57.562Z,21.40
2022-08-17T01:51:30.274Z,21.50
2022-08-17T01:54:01.172Z,21.50
2022-08-17T01:56:33.507Z,21.50
2022-08-17T01:59:01.891Z,21.40
2022-08-17T02:01:32.628Z,21.40
2022-08-17T02:04:01.880Z,21.40
2022-08-17T02:06:45.022Z,21.40
2022-08-17T02:09:19.898Z,21.40
2022-08-17T02:11:52.925Z,21.30
2022-08-17T02:14:22.719Z,21.30
2022-08-17T02:16:50.999Z,21.30
2022-08-17T02:19:19.840Z,21.20
2022-08-17T02:21:50.639Z,21.20
2022-08-17T02:25:00.522Z,21.20
2022-08-17T02:27:12.544Z,21.20
2022-08-17T02:29:40.797Z,21.30
2022-08-17T02:32:20.823Z,21.30
2022-08-17T02:34:56.185Z,21.30
2022-08-17T02:37:24.259Z,21.30
2022-08-17T02:39:52.375Z,21.30
2022-08-17T02:42:27.885Z,21.20
2022-08-17T02:44:56.552Z,21.20
2022-08-17T02:47:25.621Z,21.20
2022-08-17T02:49:55.619Z,21.10
2022-08-17T02:52:43.771Z,21.10
2022-08-17T02:55:17.453Z,21.10
2022-08-17T02:57:47.574Z,21.10
2022-08-17T03:00:19.261Z,21.10
2022-08-17T03:02:47.349Z,21.10
2022-08-17T03:05:19.059Z,21.10
2022-08-17T03:07:47.128Z,21.00
2022-08-17T03:10:18.975Z,21.10
2022-08-17T03:12:51.092Z,21.00
2022-08-17T03:15:22.000Z,21.10
2022-08-17T03:17:50.948Z,21.10
2022-08-17T03:20:19.792Z,21.00
2022-08-17T03:22:53.593Z,21.00
2022-08-17T03:25:26.816Z,21.00
2022-08-17T03:27:56.762Z,21.00
2022-08-17T03:30:26.649Z,20.90
2022-08-17T03:32:56.797Z,20.90
2022-08-17T03:35:26.949Z,20.90
2022-08-17T03:38:00.040Z,20.90
2022-08-17T03:40:55.447Z,20.90
2022-08-17T03:43:23.427Z,20.90
2022-08-17T03:46:10.954Z,20.90
2022-08-17T03:49:16.609Z,20.90
2022-08-17T03:52:02.061Z,20.90
2022-08-17T03:54:47.416Z,20.90
2022-08-17T03:57:15.570Z,20.90
2022-08-17T03:59:45.313Z,21.00
2022-08-17T04:02:18.662Z,21.00
2022-08-17T04:04:46.965Z,21.00
2022-08-17T04:07:15.041Z,21.10
2022-08-17T04:09:43.587Z,21.20
2022-08-17T04:12:12.321Z,21.20
2022-08-17T04:14:52.065Z,21.20
2022-08-17T04:17:28.700Z,21.30
2022-08-17T04:19:57.216Z,21.40
2022-08-17T04:22:30.152Z,21.40
2022-08-17T04:25:04.058Z,21.40
2022-08-17T04:27:32.185Z,21.50
2022-08-17T04:30:00.296Z,21.60
2022-08-17T04:33:02.256Z,21.70
2022-08-17T04:35:20.958Z,21.70
2022-08-17T04:37:49.213Z,21.80
2022-08-17T04:40:35.080Z,21.90
2022-08-17T04:43:05.201Z,21.90
2022-08-17T04:45:33.237Z,22.00
2022-08-17T04:48:03.188Z,22.00
2022-08-17T04:50:31.201Z,22.00
2022-08-17T04:52:59.534Z,22.10
2022-08-17T04:55:27.791Z,22.20
2022-08-17T04:57:55.857Z,22.30
2022-08-17T05:00:25.882Z,22.40
2022-08-17T05:02:56.221Z,22.50
2022-08-17T05:05:28.212Z,22.80
2022-08-17T05:07:57.942Z,23.20
2022-08-17T05:10:28.750Z,23.50
2022-08-17T05:13:00.861Z,24.00
2022-08-17T05:15:29.790Z,24.50
2022-08-17T05:18:01.592Z,25.10
2022-08-17T05:20:31.741Z,25.60
2022-08-17T05:23:02.009Z,26.00
2022-08-17T05:25:34.420Z,26.50
2022-08-17T05:28:04.970Z,26.90
2022-08-17T05:30:35.089Z,27.30
2022-08-17T05:33:05.423Z,27.80
2022-08-17T05:35:36.562Z,27.90
2022-08-17T05:38:04.863Z,27.90
2022-08-17T05:40:36.403Z,28.10
2022-08-17T05:43:09.968Z,28.50
2022-08-17T05:45:55.147Z,28.80
2022-08-17T05:48:39.612Z,29.20
2022-08-17T05:51:47.076Z,29.50
2022-08-17T05:54:25.455Z,29.90
2022-08-17T05:57:08.586Z,30.30
2022-08-17T05:59:48.528Z,30.30
2022-08-17T06:02:23.437Z,30.40
2022-08-17T06:05:10.053Z,30.30
2022-08-17T06:07:48.943Z,30.50
2022-08-17T06:10:29.049Z,30.70
2022-08-17T06:13:10.103Z,30.80
2022-08-17T06:15:50.504Z,30.70
2022-08-17T06:18:19.483Z,30.50
2022-08-17T06:20:55.016Z,30.40
2022-08-17T06:23:28.296Z,30.30
2022-08-17T06:26:02.129Z,30.00
2022-08-17T06:28:37.236Z,30.00
2022-08-17T06:31:14.051Z,29.90
2022-08-17T06:33:47.545Z,29.70
2022-08-17T06:36:40.239Z,29.50
2022-08-17T06:39:24.356Z,29.40
2022-08-17T06:42:05.624Z,29.40
2022-08-17T06:44:43.312Z,29.90
2022-08-17T06:47:29.390Z,30.20
2022-08-17T06:50:07.225Z,30.70
2022-08-17T06:52:55.554Z,31.30
2022-08-17T06:55:34.430Z,31.90
2022-08-17T06:58:15.896Z,32.10
2022-08-17T07:00:48.062Z,32.30
2022-08-17T07:03:27.516Z,32.30
2022-08-17T07:05:59.983Z,32.40
2022-08-17T07:08:35.588Z,32.40
2022-08-17T07:11:11.059Z,32.40
2022-08-17T07:13:51.155Z,32.60
2022-08-17T07:16:24.921Z,33.00
2022-08-17T07:18:55.432Z,33.50
2022-08-17T07:21:39.546Z,34.00
2022-08-17T07:24:30.050Z,34.20
2022-08-17T07:27:10.398Z,34.40
2022-08-17T07:29:42.007Z,34.40
2022-08-17T07:32:12.249Z,34.20
2022-08-17T07:35:11.313Z,33.80
2022-08-17T07:37:41.165Z,33.30
2022-08-17T07:40:26.485Z,33.00
2022-08-17T07:43:22.206Z,32.50
2022-08-17T07:46:17.096Z,31.90
2022-08-17T07:48:49.677Z,31.50
2022-08-17T07:51:27.369Z,31.20
2022-08-17T07:54:13.139Z,31.30
2022-08-17T07:56:46.428Z,31.70
2022-08-17T07:59:23.067Z,32.80
2022-08-17T08:02:06.137Z,33.70
2022-08-17T08:07:34.857Z,35.80
2022-08-17T08:10:08.959Z,36.90
2022-08-17T08:12:39.094Z,37.80
2022-08-17T08:15:17.855Z,38.40
2022-08-17T08:17:52.945Z,38.90
2022-08-17T08:20:47.773Z,39.40
2022-08-17T08:23:25.507Z,40.10
2022-08-17T08:26:04.601Z,40.70
2022-08-17T08:28:39.714Z,41.30
2022-08-17T08:31:24.461Z,41.80
2022-08-17T08:34:09.190Z,42.10
2022-08-17T08:37:16.328Z,42.30
2022-08-17T08:39:57.301Z,42.70
2022-08-17T08:42:34.401Z,42.80
2022-08-17T08:45:12.880Z,43.10
2022-08-17T08:47:56.325Z,43.50
2022-08-17T08:50:38.704Z,43.70
2022-08-17T08:53:27.549Z,43.90
2022-08-17T08:56:01.359Z,44.00
2022-08-17T08:58:41.597Z,44.10
2022-08-17T09:01:21.758Z,44.00
2022-08-17T09:04:19.982Z,43.60
2022-08-17T09:06:59.428Z,43.20
2022-08-17T09:09:40.349Z,42.70
2022-08-17T09:12:16.846Z,42.80
2022-08-17T09:14:59.562Z,42.30
2022-08-17T09:17:38.394Z,42.00
2022-08-17T09:20:27.436Z,42.30
2022-08-17T09:23:04.029Z,42.20
2022-08-17T09:25:36.099Z,41.60
2022-08-17T09:28:08.003Z,41.40
2022-08-17T09:30:42.140Z,41.10
2022-08-17T09:33:17.044Z,40.30
2022-08-17T09:35:50.689Z,40.20
2022-08-17T09:38:29.225Z,40.20
2022-08-17T09:41:10.475Z,40.40
2022-08-17T09:43:44.692Z,39.90
2022-08-17T09:46:18.863Z,39.50
2022-08-17T09:48:55.292Z,39.40
2022-08-17T09:51:32.103Z,39.40
2022-08-17T09:54:20.910Z,39.50
2022-08-17T09:57:25.798Z,39.50
2022-08-17T09:59:58.313Z,39.40
2022-08-17T10:02:50.562Z,38.90
2022-08-17T10:05:23.770Z,38.60
2022-08-17T10:08:01.637Z,38.50
2022-08-17T10:10:36.973Z,38.10
2022-08-17T10:13:18.330Z,38.00
2022-08-17T10:15:53.579Z,37.80
2022-08-17T10:18:41.006Z,37.70
2022-08-17T10:21:37.916Z,37.00
2022-08-17T10:24:31.102Z,36.40
2022-08-17T10:27:02.383Z,35.60
2022-08-17T10:29:49.005Z,35.10
2022-08-17T10:32:27.590Z,34.70
2022-08-17T10:35:25.661Z,34.40
2022-08-17T10:38:30.256Z,34.20
2022-08-17T10:41:06.681Z,34.10
2022-08-17T10:43:44.750Z,34.00
2022-08-17T10:46:52.374Z,33.90
2022-08-17T10:49:33.996Z,34.00
2022-08-17T10:52:04.347Z,34.10
2022-08-17T10:54:41.976Z,34.10
2022-08-17T11:00:13.352Z,34.30
2022-08-17T11:02:49.619Z,34.60
2022-08-17T11:05:33.929Z,34.60
2022-08-17T11:08:26.723Z,34.50
2022-08-17T11:11:11.177Z,34.40
2022-08-17T11:13:47.613Z,34.40
2022-08-17T11:16:37.668Z,34.30
2022-08-17T11:19:38.394Z,34.30
2022-08-17T11:22:42.292Z,34.30
2022-08-17T11:25:16.998Z,34.20
2022-08-17T11:27:49.626Z,34.20
2022-08-17T11:30:44.359Z,34.20
2022-08-17T11:33:53.688Z,34.10
2022-08-17T11:36:38.478Z,34.10
2022-08-17T11:39:19.766Z,34.10
2022-08-17T11:41:55.096Z,34.10
2022-08-17T11:44:37.832Z,34.00
2022-08-17T11:47:35.857Z,34.20
2022-08-17T11:50:48.497Z,34.20
2022-08-17T11:56:59.970Z,34.40
2022-08-17T11:59:58.608Z,34.40
2022-08-17T12:02:38.880Z,34.50
2022-08-17T12:05:32.373Z,34.50
2022-08-17T12:08:12.427Z,34.50
2022-08-17T12:11:07.199Z,34.50
2022-08-17T12:13:45.482Z,34.60
2022-08-17T12:16:16.442Z,34.70
2022-08-17T12:18:51.562Z,34.70
2022-08-17T12:21:34.361Z,34.60
2022-08-17T12:24:11.035Z,34.60
2022-08-17T12:26:39.095Z,34.50
2022-08-17T12:29:18.211Z,34.50
2022-08-17T12:32:06.905Z,34.50
2022-08-17T12:34:41.241Z,34.30
2022-08-17T12:37:16.783Z,34.20
2022-08-17T12:39:55.647Z,34.00
2022-08-17T12:42:26.833Z,33.70
2022-08-17T12:44:54.935Z,33.40
2022-08-17T12:47:23.532Z,33.20
2022-08-17T12:49:53.414Z,32.90
2022-08-17T12:52:25.706Z,32.60
2022-08-17T12:54:58.028Z,32.60
2022-08-17T12:57:34.227Z,32.50
2022-08-17T13:00:15.838Z,32.40
2022-08-17T13:02:48.142Z,32.30
2022-08-17T13:05:23.772Z,32.30
2022-08-17T13:22:05.898Z,32.00
2022-08-17T13:25:09.231Z,32.00
2022-08-17T13:27:44.081Z,32.00
2022-08-17T13:30:14.815Z,31.80
2022-08-17T13:32:46.574Z,31.70
2022-08-17T13:35:41.709Z,31.70
2022-08-17T13:38:45.810Z,31.70
2022-08-17T13:41:34.829Z,31.70
2022-08-17T13:44:04.330Z,31.70
2022-08-17T13:46:36.156Z,31.60
2022-08-17T14:12:23.525Z,31.30
2022-08-17T14:14:52.181Z,31.20
2022-08-17T14:17:22.861Z,31.30
2022-08-17T14:19:51.897Z,31.20
2022-08-17T14:22:25.752Z,31.20
2022-08-17T14:24:54.209Z,31.20
2022-08-17T14:27:22.646Z,31.20
2022-08-17T14:29:53.275Z,31.20
2022-08-17T14:32:26.706Z,31.20
2022-08-17T14:34:57.199Z,31.20
2022-08-17T14:37:28.050Z,31.20
2022-08-17T14:39:56.986Z,31.20
2022-08-17T14:42:26.906Z,31.10
2022-08-17T14:44:55.701Z,31.00
2022-08-17T14:47:26.636Z,31.00
2022-08-17T14:49:54.674Z,31.10
2022-08-17T14:52:22.769Z,31.00
2022-08-17T14:54:52.166Z,31.00
2022-08-17T14:57:24.621Z,30.90
2022-08-17T15:00:02.989Z,30.90
2022-08-17T15:02:43.210Z,30.90
2022-08-17T15:05:11.301Z,30.70
2022-08-17T15:07:39.324Z,30.70
2022-08-17T15:10:08.983Z,30.70
2022-08-17T15:12:40.837Z,30.60
2022-08-17T15:15:12.321Z,30.60
2022-08-17T15:17:44.467Z,30.50
2022-08-17T15:20:16.189Z,30.50
2022-08-17T15:22:45.587Z,30.50
2022-08-17T15:25:14.161Z,30.50
2022-08-17T15:27:42.377Z,30.40
2022-08-17T15:30:11.815Z,30.40
2022-08-17T15:32:51.225Z,30.40
2022-08-17T15:35:27.288Z,30.30
2022-08-17T15:37:55.818Z,30.10
2022-08-17T15:40:23.877Z,30.10
2022-08-17T15:42:52.390Z,30.20
2022-08-17T15:45:24.608Z,30.10
2022-08-17T15:47:55.135Z,30.10
2022-08-17T15:50:23.389Z,30.10
2022-08-17T15:52:57.451Z,30.10
2022-08-17T15:55:26.907Z,30.10
2022-08-17T15:57:55.177Z,30.10
2022-08-17T16:00:24.736Z,30.10
2022-08-17T16:03:45.301Z,30.00
2022-08-17T16:05:42.784Z,30.00
2022-08-17T16:08:11.190Z,29.90
2022-08-17T16:10:39.432Z,29.90
2022-08-17T16:13:17.694Z,29.80
2022-08-17T16:15:51.110Z,29.70
2022-08-17T16:18:31.041Z,29.70
2022-08-17T16:21:21.548Z,29.60
2022-08-17T16:23:51.515Z,29.50
2022-08-17T16:26:20.178Z,29.40
2022-08-17T16:28:48.240Z,29.40
2022-08-17T16:31:16.698Z,29.40
2022-08-17T16:34:15.492Z,29.30
2022-08-17T16:36:37.510Z,29.30
2022-08-17T16:39:05.853Z,29.20
2022-08-17T16:41:45.557Z,29.00
2022-08-17T16:44:15.326Z,29.00
2022-08-17T16:46:45.612Z,28.90
2022-08-17T16:49:27.577Z,28.90
2022-08-17T16:52:06.928Z,28.90
2022-08-17T16:54:35.474Z,28.80
2022-08-17T16:57:05.389Z,28.70
2022-08-17T16:59:39.652Z,28.60
2022-08-17T17:02:16.343Z,28.50
2022-08-17T17:04:51.649Z,28.50
2022-08-17T17:07:55.055Z,28.40
2022-08-17T17:10:25.332Z,28.30
2022-08-17T17:13:02.164Z,28.20
2022-08-17T17:15:43.570Z,28.20
2022-08-17T17:18:14.846Z,28.10
2022-08-17T17:20:50.721Z,28.10
2022-08-17T17:23:38.328Z,28.00
2022-08-17T17:26:19.620Z,27.90
2022-08-17T17:29:01.946Z,27.80
2022-08-17T17:31:38.305Z,27.80
2022-08-17T17:34:11.876Z,27.70
2022-08-17T17:36:47.101Z,27.60
2022-08-17T17:39:34.479Z,27.60
2022-08-17T17:42:07.768Z,27.50
2022-08-17T17:44:40.886Z,27.40
2022-08-17T17:47:09.598Z,27.30
2022-08-17T17:49:40.886Z,27.30
2022-08-17T17:52:19.498Z,27.20
2022-08-17T17:55:04.223Z,27.10
2022-08-17T17:57:44.225Z,27.10
2022-08-17T18:00:16.350Z,27.00
2022-08-17T18:02:57.449Z,26.90
2022-08-17T18:05:48.643Z,26.90
2022-08-17T18:08:37.780Z,26.80
2022-08-17T18:11:34.732Z,26.70
2022-08-17T18:14:15.319Z,26.60
2022-08-17T18:16:44.556Z,26.50
2022-08-17T18:19:14.473Z,26.50
2022-08-17T18:21:46.987Z,26.50
2022-08-17T18:24:16.548Z,26.50
2022-08-17T18:26:54.029Z,26.40
2022-08-17T18:29:38.059Z,26.30
2022-08-17T18:32:18.575Z,26.30
2022-08-17T18:34:49.567Z,26.20
2022-08-17T18:37:38.506Z,26.20
2022-08-17T18:40:31.066Z,26.10
2022-08-17T18:43:12.310Z,26.10
2022-08-17T18:45:45.819Z,26.00
2022-08-17T18:48:22.515Z,26.00
2022-08-17T18:50:53.663Z,25.90
2022-08-17T18:53:35.955Z,25.90
2022-08-17T18:56:24.517Z,25.90
2022-08-17T18:58:59.722Z,25.80
2022-08-17T19:01:52.210Z,25.80
2022-08-17T19:04:36.725Z,25.80
2022-08-17T19:07:33.665Z,25.70
2022-08-17T19:10:15.155Z,25.70
2022-08-17T19:12:50.033Z,25.70
2022-08-17T19:15:23.442Z,25.60
2022-08-17T19:17:56.819Z,25.60
2022-08-17T19:20:31.109Z,25.70
2022-08-17T19:23:12.303Z,25.60
2022-08-17T19:25:46.088Z,25.60
2022-08-17T19:28:22.971Z,25.50
2022-08-17T19:30:55.836Z,25.50
2022-08-17T19:33:24.245Z,25.40
2022-08-17T19:36:02.007Z,25.30
2022-08-17T19:38:46.097Z,25.30
2022-08-17T19:41:23.305Z,25.20
2022-08-17T19:44:29.844Z,25.20
2022-08-17T19:47:10.483Z,25.10
2022-08-17T19:49:49.122Z,25.10
2022-08-17T19:52:32.877Z,25.10
2022-08-17T19:55:07.244Z,25.10
2022-08-17T19:57:49.137Z,25.10
2022-08-17T20:00:20.813Z,25.10
2022-08-17T20:02:56.134Z,25.10
2022-08-17T20:05:28.828Z,25.00
2022-08-17T20:08:01.915Z,25.00
2022-08-17T20:10:39.701Z,24.90
2022-08-17T20:13:12.186Z,24.90
2022-08-17T20:15:43.188Z,24.90
2022-08-17T20:18:22.275Z,24.80
2022-08-17T20:20:59.425Z,24.80
2022-08-17T20:23:42.307Z,24.80
2022-08-17T20:26:23.075Z,24.70
2022-08-17T20:29:36.829Z,24.70
2022-08-17T20:32:27.359Z,24.70
2022-08-17T20:35:20.475Z,24.70
2022-08-17T20:37:55.261Z,24.70
2022-08-17T20:40:30.341Z,24.70
2022-08-17T20:42:59.145Z,24.70
2022-08-17T20:46:00.604Z,24.70
2022-08-17T20:48:39.197Z,24.70
2022-08-17T20:51:25.977Z,24.60
2022-08-17T20:54:25.846Z,24.60
2022-08-17T20:56:57.831Z,24.60
2022-08-17T20:59:56.198Z,24.60
2022-08-17T21:02:27.143Z,24.60
2022-08-17T21:05:15.495Z,24.60
2022-08-17T21:07:55.620Z,24.60
2022-08-17T21:10:37.101Z,24.60
2022-08-17T21:13:41.573Z,24.50
2022-08-17T21:16:31.438Z,24.40
2022-08-17T21:19:16.958Z,24.40
2022-08-17T21:21:58.072Z,24.30
2022-08-17T21:24:41.980Z,24.30
2022-08-17T21:27:21.898Z,24.40
2022-08-17T21:30:12.325Z,24.30
2022-08-17T21:33:08.410Z,24.30
2022-08-17T21:35:50.366Z,24.30
2022-08-17T21:38:21.428Z,24.20
2022-08-17T21:40:53.891Z,24.20
2022-08-17T21:43:26.337Z,24.20
2022-08-17T21:46:01.659Z,24.20
2022-08-17T21:48:32.202Z,24.10
2022-08-17T21:51:12.260Z,24.10
2022-08-17T21:53:45.475Z,24.10
2022-08-17T21:56:25.383Z,24.00
2022-08-17T21:58:58.217Z,23.90
2022-08-17T22:01:29.344Z,23.90
2022-08-17T22:04:03.322Z,23.90
2022-08-17T22:06:36.974Z,23.90
2022-08-17T22:09:18.746Z,23.90
2022-08-17T22:11:57.775Z,23.80
2022-08-17T22:14:52.485Z,23.70
2022-08-17T22:17:20.515Z,23.70
2022-08-17T22:19:51.630Z,23.60
2022-08-17T22:22:30.792Z,23.60
2022-08-17T22:25:03.025Z,23.60
2022-08-17T22:27:52.207Z,23.50
2022-08-17T22:30:29.665Z,23.40
2022-08-17T22:32:58.766Z,23.40
2022-08-17T22:35:37.546Z,23.40
2022-08-17T22:38:33.749Z,23.40
2022-08-17T22:41:34.827Z,23.30
2022-08-17T22:44:15.503Z,23.30
2022-08-17T22:46:52.950Z,23.20
2022-08-17T22:49:27.356Z,23.20
2022-08-17T22:52:19.235Z,23.10
2022-08-17T22:55:09.351Z,23.00
2022-08-17T22:57:55.508Z,23.00
2022-08-17T23:00:37.430Z,22.90
2022-08-17T23:03:09.204Z,22.80
2022-08-17T23:05:38.401Z,22.80
2022-08-17T23:08:06.757Z,22.80
2022-08-17T23:10:36.084Z,22.80
2022-08-17T23:13:04.409Z,22.70
2022-08-17T23:15:34.036Z,22.70
2022-08-17T23:18:05.210Z,22.70
2022-08-17T23:20:35.609Z,22.70
2022-08-17T23:23:06.476Z,22.70
2022-08-17T23:25:36.064Z,22.70
2022-08-17T23:28:06.060Z,22.70
2022-08-17T23:30:39.646Z,22.70
2022-08-17T23:33:14.428Z,22.70
2022-08-17T23:35:42.947Z,22.60
2022-08-17T23:38:11.768Z,22.60
2022-08-17T23:40:42.527Z,22.50
2022-08-17T23:43:23.992Z,22.50
2022-08-17T23:45:55.293Z,22.50
2022-08-17T23:48:30.345Z,22.50
2022-08-17T23:51:04.297Z,22.50
2022-08-17T23:53:36.666Z,22.40
2022-08-17T23:56:10.094Z,22.40
2022-08-17T23:58:39.518Z,22.30
